createdAt,value
2023-08-08T00:00:58.718Z,10.86
2023-08-08T00:03:27.898Z,10.88
2023-08-08T00:05:57.364Z,10.86
2023-08-08T00:08:26.190Z,10.86
2023-08-08T00:10:55.088Z,10.80
2023-08-08T00:13:24.791Z,10.80
2023-08-08T00:15:54.917Z,10.83
2023-08-08T00:18:23.870Z,10.85
2023-08-08T00:20:52.463Z,10.85
2023-08-08T00:23:21.306Z,10.82
2023-08-08T00:25:52.403Z,10.80
2023-08-08T00:28:21.264Z,10.80
2023-08-08T00:30:50.515Z,10.81
2023-08-08T00:33:20.963Z,10.83
2023-08-08T00:35:49.862Z,10.83
2023-08-08T00:38:19.906Z,10.82
2023-08-08T00:40:48.954Z,10.85
2023-08-08T00:43:17.719Z,10.88
2023-08-08T00:45:50.938Z,10.91
2023-08-08T00:48:21.962Z,10.91
2023-08-08T00:50:51.150Z,10.91
2023-08-08T00:53:21.333Z,10.92
2023-08-08T00:55:50.519Z,10.89
2023-08-08T00:58:19.470Z,10.81
2023-08-08T01:00:51.199Z,10.79
2023-08-08T01:03:20.364Z,10.77
2023-08-08T01:05:55.965Z,10.71
2023-08-08T01:08:26.647Z,10.69
2023-08-08T01:10:56.073Z,10.68
2023-08-08T01:13:26.896Z,10.66
2023-08-08T01:15:56.576Z,10.63
2023-08-08T01:18:25.388Z,10.72
2023-08-08T01:20:56.313Z,10.70
2023-08-08T01:23:33.519Z,10.71
2023-08-08T01:26:06.022Z,10.68
2023-08-08T01:28:36.647Z,10.69
2023-08-08T01:31:05.787Z,10.67
2023-08-08T01:33:35.035Z,10.63
2023-08-08T01:36:08.506Z,10.62
2023-08-08T01:38:40.419Z,10.61
2023-08-08T01:41:11.381Z,10.64
2023-08-08T01:43:40.831Z,10.65
2023-08-08T01:46:10.527Z,10.65
2023-08-08T01:48:39.369Z,10.56
2023-08-08T01:51:08.303Z,10.60
2023-08-08T01:53:36.941Z,10.62
2023-08-08T01:56:05.961Z,10.62
2023-08-08T01:58:38.267Z,10.63
2023-08-08T02:01:07.079Z,10.68
2023-08-08T02:03:36.122Z,10.69
2023-08-08T02:06:05.418Z,10.65
2023-08-08T02:08:34.241Z,10.64
2023-08-08T02:11:02.746Z,10.60
2023-08-08T02:13:31.750Z,10.52
2023-08-08T02:16:02.426Z,10.51
2023-08-08T02:18:30.956Z,10.48
2023-08-08T02:20:59.711Z,10.48
2023-08-08T02:23:28.275Z,10.47
2023-08-08T02:25:57.222Z,10.47
2023-08-08T02:28:25.887Z,10.45
2023-08-08T02:30:56.623Z,10.40
2023-08-08T02:33:26.928Z,10.37
2023-08-08T02:35:55.820Z,10.38
2023-08-08T02:38:24.668Z,10.40
2023-08-08T02:40:54.377Z,10.41
2023-08-08T02:43:23.124Z,10.41
2023-08-08T02:45:52.188Z,10.44
2023-08-08T02:48:20.934Z,10.46
2023-08-08T02:50:51.074Z,10.44
2023-08-08T02:53:21.321Z,10.39
2023-08-08T02:55:50.540Z,10.39
2023-08-08T02:58:19.321Z,10.36
2023-08-08T03:00:48.236Z,10.36
2023-08-08T03:03:16.860Z,10.40
2023-08-08T03:05:46.731Z,10.41
2023-08-08T03:08:16.919Z,10.39
2023-08-08T03:10:45.587Z,10.38
2023-08-08T03:13:14.691Z,10.39
2023-08-08T03:15:43.795Z,10.39
2023-08-08T03:18:12.566Z,10.37
2023-08-08T03:20:41.416Z,10.36
2023-08-08T03:23:10.100Z,10.35
2023-08-08T03:25:40.443Z,10.36
2023-08-08T03:28:09.203Z,10.34
2023-08-08T03:30:39.678Z,10.35
2023-08-08T03:33:08.687Z,10.36
2023-08-08T03:35:37.769Z,10.30
2023-08-08T03:38:07.006Z,10.29
2023-08-08T03:40:36.063Z,10.29
2023-08-08T03:43:07.123Z,10.26
2023-08-08T03:45:35.865Z,10.26
2023-08-08T03:48:04.828Z,10.26
2023-08-08T03:50:33.752Z,10.28
2023-08-08T03:53:02.549Z,10.27
2023-08-08T03:55:31.476Z,10.25
2023-08-08T03:58:00.397Z,10.24
2023-08-08T04:00:31.036Z,10.26
2023-08-08T04:03:00.060Z,10.27
2023-08-08T04:05:29.229Z,10.26
2023-08-08T04:07:58.295Z,10.26
2023-08-08T04:10:27.492Z,10.21
2023-08-08T04:12:56.173Z,10.22
2023-08-08T04:15:25.244Z,10.26
2023-08-08T04:17:55.806Z,10.27
2023-08-08T04:20:25.721Z,10.34
2023-08-08T04:22:57.318Z,10.35
2023-08-08T04:25:26.136Z,10.41
2023-08-08T04:27:55.288Z,10.45
2023-08-08T04:30:24.205Z,10.51
2023-08-08T04:32:52.968Z,10.55
2023-08-08T04:35:23.141Z,10.64
2023-08-08T04:37:52.676Z,10.71
2023-08-08T04:40:21.514Z,10.75
2023-08-08T04:42:49.822Z,10.80
2023-08-08T04:45:18.824Z,10.85
2023-08-08T04:47:48.356Z,10.92
2023-08-08T04:50:17.388Z,10.98
2023-08-08T04:52:48.324Z,10.95
2023-08-08T04:55:17.221Z,10.98
2023-08-08T04:57:46.067Z,11.03
2023-08-08T05:00:16.298Z,11.09
2023-08-08T05:02:45.392Z,11.17
2023-08-08T05:05:14.387Z,11.25
2023-08-08T05:07:43.841Z,11.30
2023-08-08T05:10:14.321Z,11.36
2023-08-08T05:12:44.200Z,11.46
2023-08-08T05:15:13.591Z,11.56
2023-08-08T05:17:42.865Z,11.57
2023-08-08T05:20:13.469Z,11.69
2023-08-08T05:22:42.308Z,11.75
2023-08-08T05:25:11.852Z,11.73
2023-08-08T05:27:42.476Z,11.86
2023-08-08T05:30:12.101Z,11.92
2023-08-08T05:32:40.986Z,12.06
2023-08-08T05:35:10.772Z,12.07
2023-08-08T05:37:39.358Z,12.13
2023-08-08T05:40:09.396Z,12.24
2023-08-08T05:42:38.151Z,12.30
2023-08-08T05:45:09.955Z,12.39
2023-08-08T05:47:38.889Z,12.47
2023-08-08T05:50:08.860Z,12.52
2023-08-08T05:52:37.746Z,12.62
2023-08-08T05:55:07.224Z,12.65
2023-08-08T05:57:36.045Z,12.82
2023-08-08T06:00:06.593Z,12.94
2023-08-08T06:02:36.843Z,13.02
2023-08-08T06:05:06.068Z,13.15
2023-08-08T06:07:35.282Z,13.36
2023-08-08T06:10:04.139Z,13.34
2023-08-08T06:12:32.809Z,13.41
2023-08-08T06:15:01.238Z,13.49
2023-08-08T06:17:29.930Z,13.51
2023-08-08T06:20:00.505Z,13.47
2023-08-08T06:22:31.416Z,13.68
2023-08-08T06:25:00.586Z,13.62
2023-08-08T06:27:29.600Z,13.50
2023-08-08T06:29:58.804Z,13.41
2023-08-08T06:32:27.512Z,13.34
2023-08-08T06:34:56.519Z,13.20
2023-08-08T06:37:26.471Z,13.03
2023-08-08T06:39:55.197Z,13.05
2023-08-08T06:42:23.886Z,13.08
2023-08-08T06:44:52.839Z,13.13
2023-08-08T06:47:21.541Z,13.20
2023-08-08T06:49:50.757Z,13.19
2023-08-08T06:52:19.434Z,13.23
2023-08-08T06:54:50.130Z,13.29
2023-08-08T06:57:18.798Z,13.22
2023-08-08T06:59:51.889Z,13.32
2023-08-08T07:02:21.800Z,13.42
2023-08-08T07:04:51.332Z,13.45
2023-08-08T07:07:20.101Z,13.55
2023-08-08T07:09:51.876Z,13.66
2023-08-08T07:12:20.518Z,13.78
2023-08-08T07:14:49.632Z,13.59
2023-08-08T07:17:18.579Z,13.53
2023-08-08T07:19:47.605Z,13.49
2023-08-08T07:22:16.546Z,13.60
2023-08-08T07:24:45.242Z,13.80
2023-08-08T07:27:15.413Z,13.80
2023-08-08T07:29:43.991Z,13.94
2023-08-08T07:32:13.293Z,14.09
2023-08-08T07:34:41.892Z,14.19
2023-08-08T07:37:10.980Z,14.35
2023-08-08T07:39:39.782Z,14.48
2023-08-08T07:42:08.728Z,14.57
2023-08-08T07:44:39.551Z,14.38
2023-08-08T07:47:13.390Z,14.57
2023-08-08T07:49:43.360Z,14.82
2023-08-08T07:52:12.219Z,15.10
2023-08-08T07:54:41.883Z,15.04
2023-08-08T07:57:10.690Z,15.21
2023-08-08T07:59:41.728Z,15.23
2023-08-08T08:02:10.219Z,15.42
2023-08-08T08:04:38.864Z,15.41
2023-08-08T08:07:08.442Z,15.30
2023-08-08T08:09:37.662Z,15.49
2023-08-08T08:12:07.226Z,15.53
2023-08-08T08:14:36.257Z,15.69
2023-08-08T08:17:06.642Z,15.49
2023-08-08T08:19:35.798Z,15.45
2023-08-08T08:22:04.420Z,15.51
2023-08-08T08:24:33.593Z,15.39
2023-08-08T08:27:02.418Z,15.45
2023-08-08T08:29:32.425Z,15.49
2023-08-08T08:32:01.222Z,15.68
2023-08-08T08:34:32.188Z,15.60
2023-08-08T08:37:01.724Z,15.78
2023-08-08T08:39:30.737Z,15.83
2023-08-08T08:42:02.982Z,15.89
2023-08-08T08:44:33.214Z,16.09
2023-08-08T08:47:04.324Z,16.52
2023-08-08T08:49:34.723Z,16.77
2023-08-08T08:52:03.602Z,16.61
2023-08-08T08:54:32.408Z,16.75
2023-08-08T08:57:01.755Z,16.83
2023-08-08T08:59:30.759Z,16.87
2023-08-08T09:02:01.503Z,16.80
2023-08-08T09:04:31.843Z,16.73
2023-08-08T09:07:02.882Z,16.72
2023-08-08T09:09:34.407Z,16.64
2023-08-08T09:12:05.997Z,16.81
2023-08-08T09:14:36.146Z,16.85
2023-08-08T09:17:05.147Z,16.79
2023-08-08T09:19:35.034Z,17.22
2023-08-08T09:22:07.577Z,17.29
2023-08-08T09:24:40.680Z,17.61
2023-08-08T09:27:09.632Z,17.54
2023-08-08T09:29:38.414Z,17.70
2023-08-08T09:32:07.852Z,17.71
2023-08-08T09:34:37.487Z,17.89
2023-08-08T09:37:09.006Z,17.70
2023-08-08T09:39:38.064Z,17.80
2023-08-08T09:42:07.259Z,18.19
2023-08-08T09:44:36.538Z,18.04
2023-08-08T09:47:05.628Z,17.96
2023-08-08T09:49:36.113Z,17.56
2023-08-08T09:52:07.050Z,17.74
2023-08-08T09:54:36.485Z,17.58
2023-08-08T09:57:05.695Z,17.85
2023-08-08T09:59:35.495Z,17.94
2023-08-08T10:02:08.246Z,18.32
2023-08-08T10:04:38.510Z,18.59
2023-08-08T10:07:08.902Z,18.53
2023-08-08T10:09:39.089Z,18.82
2023-08-08T10:12:09.532Z,19.15
2023-08-08T10:14:39.518Z,19.25
2023-08-08T10:17:08.669Z,19.24
2023-08-08T10:19:37.779Z,19.36
2023-08-08T10:22:08.551Z,19.37
2023-08-08T10:24:38.148Z,18.98
2023-08-08T10:27:07.329Z,19.00
2023-08-08T10:29:36.669Z,19.32
2023-08-08T10:32:07.926Z,19.78
2023-08-08T10:34:41.811Z,19.82
2023-08-08T10:37:16.926Z,20.20
2023-08-08T10:39:54.651Z,20.21
2023-08-08T10:42:25.392Z,19.89
2023-08-08T10:44:54.976Z,19.90
2023-08-08T10:47:25.619Z,20.13
2023-08-08T10:50:02.125Z,20.18
2023-08-08T10:52:33.399Z,19.66
2023-08-08T10:55:03.869Z,19.80
2023-08-08T10:57:34.012Z,20.24
2023-08-08T11:00:21.871Z,19.87
2023-08-08T11:02:52.153Z,19.95
2023-08-08T11:05:21.357Z,20.13
2023-08-08T11:07:52.021Z,20.32
2023-08-08T11:10:21.252Z,20.08
2023-08-08T11:13:01.143Z,20.01
2023-08-08T11:15:30.216Z,20.08
2023-08-08T11:17:59.496Z,20.32
2023-08-08T11:20:32.372Z,20.58
2023-08-08T11:23:03.173Z,20.39
2023-08-08T11:25:33.072Z,20.57
2023-08-08T11:28:01.699Z,20.52
2023-08-08T11:30:32.119Z,20.38
2023-08-08T11:35:35.463Z,20.57
2023-08-08T11:38:07.308Z,20.86
2023-08-08T11:40:36.432Z,20.65
2023-08-08T11:43:05.592Z,20.74
2023-08-08T11:45:34.587Z,21.19
2023-08-08T11:48:04.467Z,21.68
2023-08-08T11:50:33.172Z,21.45
2023-08-08T11:55:34.914Z,21.11
2023-08-08T11:58:04.171Z,21.65
2023-08-08T12:00:33.163Z,21.67
2023-08-08T12:03:05.957Z,20.90
2023-08-08T12:05:39.703Z,21.06
2023-08-08T12:08:08.883Z,21.26
2023-08-08T12:10:39.455Z,21.50
2023-08-08T12:13:10.680Z,21.54
2023-08-08T12:15:43.645Z,21.23
2023-08-08T12:18:12.371Z,21.27
2023-08-08T12:20:42.498Z,21.30
2023-08-08T12:23:11.409Z,21.29
2023-08-08T12:25:42.263Z,20.91
2023-08-08T12:28:10.920Z,21.06
2023-08-08T12:30:39.828Z,20.82
2023-08-08T12:33:08.325Z,20.95
2023-08-08T12:35:37.063Z,21.26
2023-08-08T12:38:05.850Z,21.13
2023-08-08T12:40:37.738Z,20.86
2023-08-08T12:43:08.066Z,20.90
2023-08-08T12:45:37.259Z,20.28
2023-08-08T12:48:06.478Z,20.36
2023-08-08T12:50:35.385Z,20.26
2023-08-08T12:53:05.287Z,20.36
2023-08-08T12:55:34.262Z,20.12
2023-08-08T12:58:03.191Z,20.28
2023-08-08T13:00:34.080Z,20.05
2023-08-08T13:03:03.860Z,20.44
2023-08-08T13:05:33.019Z,20.64
2023-08-08T13:08:01.543Z,20.99
2023-08-08T13:10:30.428Z,21.15
2023-08-08T13:12:59.481Z,21.58
2023-08-08T13:15:28.407Z,21.02
2023-08-08T13:17:58.995Z,21.32
2023-08-08T13:20:28.675Z,21.31
2023-08-08T13:22:58.624Z,21.41
2023-08-08T13:25:27.251Z,20.88
2023-08-08T13:27:56.471Z,20.73
2023-08-08T13:30:25.326Z,20.76
2023-08-08T13:32:55.644Z,20.95
2023-08-08T13:35:28.250Z,20.96
2023-08-08T13:37:57.308Z,21.01
2023-08-08T13:40:25.868Z,21.05
2023-08-08T13:42:54.986Z,21.40
2023-08-08T13:45:24.119Z,21.55
2023-08-08T13:47:53.457Z,21.80
2023-08-08T13:50:22.643Z,22.05
2023-08-08T13:52:54.060Z,22.27
2023-08-08T13:55:23.025Z,22.44
2023-08-08T13:57:52.069Z,22.50
2023-08-08T14:00:20.605Z,22.15
2023-08-08T14:02:50.090Z,22.12
2023-08-08T14:05:19.105Z,22.34
2023-08-08T14:07:49.301Z,22.53
2023-08-08T14:10:20.960Z,22.46
2023-08-08T14:12:49.699Z,22.61
2023-08-08T14:15:18.688Z,22.10
2023-08-08T14:17:49.043Z,22.51
2023-08-08T14:20:17.996Z,22.61
2023-08-08T14:22:47.876Z,22.89
2023-08-08T14:25:16.520Z,22.63
2023-08-08T14:27:46.586Z,22.23
2023-08-08T14:30:15.430Z,22.10
2023-08-08T14:32:44.355Z,21.90
2023-08-08T14:35:14.088Z,21.70
2023-08-08T14:37:46.026Z,22.11
2023-08-08T14:40:15.058Z,22.09
2023-08-08T14:42:43.771Z,22.27
2023-08-08T14:45:14.235Z,22.21
2023-08-08T14:47:43.349Z,22.43
2023-08-08T14:50:12.492Z,22.46
2023-08-08T14:52:41.235Z,22.43
2023-08-08T14:55:10.424Z,22.67
2023-08-08T14:57:38.702Z,22.55
2023-08-08T15:00:11.032Z,22.88
2023-08-08T15:02:49.926Z,23.02
2023-08-08T15:05:18.997Z,23.13
2023-08-08T15:07:48.078Z,22.48
2023-08-08T15:10:16.766Z,22.12
2023-08-08T15:12:45.348Z,22.15
2023-08-08T15:15:14.690Z,22.35
2023-08-08T15:17:44.575Z,22.31
2023-08-08T15:20:15.397Z,22.67
2023-08-08T15:22:44.265Z,22.85
2023-08-08T15:25:13.845Z,22.81
2023-08-08T15:27:43.390Z,22.59
2023-08-08T15:30:14.015Z,22.67
2023-08-08T15:32:42.694Z,22.47
2023-08-08T15:35:11.572Z,22.75
2023-08-08T15:37:42.329Z,22.90
2023-08-08T15:40:12.643Z,22.95
2023-08-08T15:42:44.191Z,22.93
2023-08-08T15:45:13.712Z,22.71
2023-08-08T15:47:44.374Z,22.80
2023-08-08T15:50:13.367Z,22.36
2023-08-08T15:52:43.760Z,22.40
2023-08-08T15:55:12.810Z,22.67
2023-08-08T15:57:42.089Z,22.62
2023-08-08T16:00:12.169Z,21.99
2023-08-08T16:02:41.412Z,21.67
2023-08-08T16:05:11.308Z,21.37
2023-08-08T16:07:40.661Z,21.56
2023-08-08T16:10:12.294Z,21.85
2023-08-08T16:12:41.959Z,21.78
2023-08-08T16:15:13.473Z,21.76
2023-08-08T16:17:42.771Z,21.60
2023-08-08T16:20:13.337Z,21.62
2023-08-08T16:22:42.957Z,21.72
2023-08-08T16:25:13.714Z,21.89
2023-08-08T16:27:42.477Z,21.81
2023-08-08T16:30:12.778Z,21.76
2023-08-08T16:32:41.347Z,21.69
2023-08-08T16:35:11.447Z,21.32
2023-08-08T16:37:39.946Z,21.40
2023-08-08T16:40:10.435Z,21.55
2023-08-08T16:42:40.486Z,21.66
2023-08-08T16:45:10.109Z,21.80
2023-08-08T16:47:39.898Z,21.81
2023-08-08T16:50:10.117Z,21.79
2023-08-08T16:52:41.741Z,21.64
2023-08-08T16:55:13.062Z,21.51
2023-08-08T16:57:43.789Z,21.47
2023-08-08T17:00:13.367Z,21.17
2023-08-08T17:02:42.925Z,20.88
2023-08-08T17:05:11.775Z,20.56
2023-08-08T17:07:41.812Z,20.48
2023-08-08T17:10:12.537Z,20.22
2023-08-08T17:12:43.252Z,19.86
2023-08-08T17:15:12.561Z,19.53
2023-08-08T17:17:41.540Z,19.37
2023-08-08T17:20:14.255Z,19.08
2023-08-08T17:22:43.631Z,18.90
2023-08-08T17:25:12.669Z,18.74
2023-08-08T17:27:42.750Z,18.51
2023-08-08T17:30:13.347Z,18.36
2023-08-08T17:32:42.639Z,18.21
2023-08-08T17:35:12.442Z,18.06
2023-08-08T17:37:41.002Z,17.85
2023-08-08T17:40:11.275Z,17.71
2023-08-08T17:42:40.269Z,17.54
2023-08-08T17:45:12.391Z,17.42
2023-08-08T17:47:41.473Z,17.33
2023-08-08T17:50:11.395Z,17.12
2023-08-08T17:52:40.188Z,16.94
2023-08-08T17:55:10.076Z,16.82
2023-08-08T17:57:39.677Z,16.73
2023-08-08T18:00:11.632Z,16.51
2023-08-08T18:02:40.532Z,16.39
2023-08-08T18:05:10.349Z,16.27
2023-08-08T18:07:38.125Z,16.19
2023-08-08T18:10:08.741Z,16.10
2023-08-08T18:12:37.653Z,15.99
2023-08-08T18:15:08.060Z,15.85
2023-08-08T18:17:38.550Z,15.74
2023-08-08T18:20:10.736Z,15.69
2023-08-08T18:22:39.665Z,15.63
2023-08-08T18:25:10.133Z,15.47
2023-08-08T18:27:38.731Z,15.45
2023-08-08T18:30:08.959Z,15.40
2023-08-08T18:32:40.085Z,15.36
2023-08-08T18:35:09.731Z,15.32
2023-08-08T18:37:39.807Z,15.29
2023-08-08T18:40:12.778Z,15.18
2023-08-08T18:42:43.735Z,15.13
2023-08-08T18:45:13.095Z,15.03
2023-08-08T18:47:44.325Z,14.99
2023-08-08T18:50:12.998Z,15.00
2023-08-08T18:52:42.497Z,15.05
2023-08-08T18:55:14.401Z,15.02
2023-08-08T18:57:43.368Z,14.91
2023-08-08T19:00:13.321Z,14.75
2023-08-08T19:02:43.880Z,14.65
2023-08-08T19:05:12.854Z,14.67
2023-08-08T19:07:41.809Z,14.65
2023-08-08T19:10:11.726Z,14.56
2023-08-08T19:12:40.555Z,14.48
2023-08-08T19:15:11.058Z,14.46
2023-08-08T19:17:54.936Z,14.47
2023-08-08T19:20:26.572Z,14.41
2023-08-08T19:22:55.681Z,14.30
2023-08-08T19:25:24.890Z,14.26
2023-08-08T19:27:55.834Z,14.12
2023-08-08T19:30:24.656Z,14.09
2023-08-08T19:32:53.530Z,14.12
2023-08-08T19:35:22.454Z,14.13
2023-08-08T19:37:53.294Z,14.01
2023-08-08T19:40:22.623Z,13.91
2023-08-08T19:42:51.753Z,13.89
2023-08-08T19:45:20.872Z,13.87
2023-08-08T19:47:49.903Z,13.86
2023-08-08T19:50:18.732Z,13.87
2023-08-08T19:52:48.496Z,13.87
2023-08-08T19:55:20.282Z,13.76
2023-08-08T19:57:49.192Z,13.78
2023-08-08T20:00:18.924Z,13.76
2023-08-08T20:02:52.142Z,13.73
2023-08-08T20:05:21.169Z,13.65
2023-08-08T20:07:50.542Z,13.43
2023-08-08T20:10:21.199Z,13.62
2023-08-08T20:12:49.979Z,13.61
2023-08-08T20:15:19.114Z,13.58
2023-08-08T20:17:47.736Z,13.54
2023-08-08T20:20:17.021Z,13.50
2023-08-08T20:22:45.858Z,13.44
2023-08-08T20:25:17.371Z,13.36
2023-08-08T20:27:47.853Z,13.27
2023-08-08T20:30:16.623Z,13.20
2023-08-08T20:32:45.451Z,13.15
2023-08-08T20:35:14.327Z,13.08
2023-08-08T20:37:43.304Z,13.05
2023-08-08T20:40:12.404Z,12.96
2023-08-08T20:42:47.229Z,12.91
2023-08-08T20:45:21.681Z,12.88
2023-08-08T20:47:50.654Z,12.84
2023-08-08T20:50:20.764Z,12.80
2023-08-08T20:52:50.336Z,12.78
2023-08-08T20:55:19.581Z,12.74
2023-08-08T20:57:50.068Z,12.71
2023-08-08T21:00:19.466Z,12.68
2023-08-08T21:02:48.560Z,12.65
2023-08-08T21:05:17.689Z,12.64
2023-08-08T21:07:48.034Z,12.60
2023-08-08T21:10:17.561Z,12.57
2023-08-08T21:12:46.307Z,12.51
2023-08-08T21:15:16.695Z,12.41
2023-08-08T21:17:47.298Z,12.32
2023-08-08T21:20:16.685Z,12.32
2023-08-08T21:22:45.260Z,12.31
2023-08-08T21:25:16.193Z,12.25
2023-08-08T21:27:44.849Z,12.21
2023-08-08T21:30:13.990Z,12.18
2023-08-08T21:32:45.362Z,12.09
2023-08-08T21:35:14.821Z,12.12
2023-08-08T21:37:45.256Z,12.15
2023-08-08T21:40:14.637Z,12.17
2023-08-08T21:42:43.585Z,12.17
2023-08-08T21:45:12.833Z,12.18
2023-08-08T21:47:42.164Z,12.21
2023-08-08T21:50:13.074Z,12.17
2023-08-08T21:52:42.258Z,12.16
2023-08-08T21:55:11.447Z,12.19
2023-08-08T21:57:40.564Z,12.23
2023-08-08T22:00:14.559Z,12.27
2023-08-08T22:02:44.807Z,12.29
2023-08-08T22:05:15.284Z,12.34
2023-08-08T22:07:44.340Z,12.37
2023-08-08T22:10:13.044Z,12.35
2023-08-08T22:12:41.915Z,12.26
2023-08-08T22:15:12.943Z,12.20
2023-08-08T22:17:50.221Z,12.23
2023-08-08T22:20:27.583Z,12.24
2023-08-08T22:23:09.520Z,12.30
2023-08-08T22:25:46.628Z,12.27
2023-08-08T22:28:15.090Z,12.22
2023-08-08T22:30:44.202Z,12.25
2023-08-08T22:33:15.362Z,12.33
2023-08-08T22:35:46.253Z,12.40
2023-08-08T22:38:15.108Z,12.47
2023-08-08T22:40:45.577Z,12.47
2023-08-08T22:43:15.748Z,12.48
2023-08-08T22:45:44.590Z,12.44
2023-08-08T22:48:14.160Z,12.43
2023-08-08T22:50:45.663Z,12.45
2023-08-08T22:53:14.615Z,12.40
2023-08-08T22:55:43.525Z,12.40
2023-08-08T22:58:12.459Z,12.42
2023-08-08T23:00:41.334Z,12.45
2023-08-08T23:03:10.349Z,12.55
2023-08-08T23:05:39.552Z,12.60
2023-08-08T23:08:11.110Z,12.65
2023-08-08T23:10:40.237Z,12.67
2023-08-08T23:13:09.167Z,12.66
2023-08-08T23:15:38.439Z,12.72
2023-08-08T23:18:07.272Z,12.73
2023-08-08T23:20:42.467Z,12.73
2023-08-08T23:23:14.887Z,12.73
2023-08-08T23:25:43.669Z,12.71
2023-08-08T23:28:12.446Z,12.68
2023-08-08T23:30:41.454Z,12.64
2023-08-08T23:33:11.571Z,12.63
2023-08-08T23:35:40.746Z,12.64
2023-08-08T23:38:09.694Z,12.67
2023-08-08T23:40:39.777Z,12.69
2023-08-08T23:43:08.191Z,12.73
2023-08-08T23:45:37.117Z,12.73
2023-08-08T23:48:06.856Z,12.72
2023-08-08T23:50:35.665Z,12.72
2023-08-08T23:53:04.469Z,12.67
2023-08-08T23:55:33.319Z,12.67
2023-08-08T23:58:03.873Z,12.70
